createdAt,value
2019-01-11T09:39:09.313Z,67.05
2019-01-11T09:40:09.299Z,67.85
2019-01-11T09:41:09.383Z,68.57
2019-01-11T09:42:09.266Z,68.69
2019-01-11T09:43:10.282Z,69.92
2019-01-11T09:44:09.268Z,70.04
2019-01-11T09:45:09.322Z,70.35
2019-01-11T09:46:09.216Z,70.72
2019-01-11T09:47:09.288Z,70.92
2019-01-11T09:48:09.201Z,71.09
2019-01-11T09:49:09.238Z,71.02
2019-01-11T09:50:09.185Z,70.88
2019-01-11T09:51:15.662Z,70.50
2019-01-11T09:52:10.150Z,70.87
2019-01-11T09:53:09.227Z,70.91
2019-01-11T09:54:09.163Z,70.94
2019-01-11T09:55:10.165Z,70.76
2019-01-11T09:56:09.115Z,70.97
2019-01-11T09:57:09.157Z,71.22
2019-01-11T09:58:09.083Z,70.80
2019-01-11T09:59:09.203Z,71.04
2019-01-11T10:00:09.071Z,71.04
2019-01-11T10:01:09.083Z,70.97
2019-01-11T10:02:09.042Z,70.97
2019-01-11T10:03:09.093Z,70.97
2019-01-11T10:04:09.038Z,71.11
2019-01-11T10:05:09.115Z,71.00
2019-01-11T10:06:08.991Z,71.21
2019-01-11T10:07:09.019Z,71.42
2019-01-11T10:08:08.974Z,71.21
2019-01-11T10:09:09.086Z,71.52
2019-01-11T10:10:08.951Z,71.42
2019-01-11T10:11:09.045Z,71.45
2019-01-11T10:12:08.931Z,71.45
2019-01-11T10:13:08.961Z,71.66
2019-01-11T10:14:08.909Z,71.34
2019-01-11T10:15:09.009Z,71.66
2019-01-11T10:16:08.883Z,71.86
2019-01-11T10:17:08.884Z,72.07
2019-01-11T10:18:08.893Z,72.42
2019-01-11T10:19:08.899Z,72.49
2019-01-11T10:20:08.865Z,73.11
2019-01-11T10:21:08.921Z,72.31
2019-01-11T10:22:08.818Z,73.04
2019-01-11T10:23:08.833Z,72.73
2019-01-11T10:24:08.803Z,73.04
2019-01-11T10:25:09.896Z,72.94
2019-01-11T10:26:08.776Z,73.25
2019-01-11T10:27:08.863Z,72.83
2019-01-11T10:28:08.751Z,73.46
2019-01-11T10:29:08.765Z,73.25
2019-01-11T10:30:08.743Z,73.35
2019-01-11T10:31:08.781Z,73.25
2019-01-11T10:32:08.708Z,73.14
2019-01-11T10:33:08.802Z,73.66
2019-01-11T10:34:08.683Z,73.87
2019-01-11T10:35:08.766Z,74.08
2019-01-11T10:36:08.661Z,73.87
2019-01-11T10:37:08.723Z,74.11
2019-01-11T10:38:08.638Z,74.74
2019-01-11T10:39:08.735Z,74.74
2019-01-11T10:40:08.627Z,74.43
2019-01-11T10:41:08.644Z,74.63
2019-01-11T10:42:08.598Z,74.84
2019-01-11T10:43:08.663Z,74.43
2019-01-11T10:44:08.569Z,75.36
2019-01-11T10:45:09.631Z,75.05
2019-01-11T10:46:08.549Z,74.95
2019-01-11T10:47:08.589Z,75.36
2019-01-11T10:48:08.523Z,74.84
2019-01-11T10:49:08.607Z,75.22
2019-01-11T10:50:08.509Z,75.43
2019-01-11T10:51:08.563Z,75.78
2019-01-11T10:52:08.480Z,75.57
2019-01-11T10:53:08.527Z,75.85
2019-01-11T10:54:08.458Z,75.85
2019-01-11T10:55:08.615Z,75.95
2019-01-11T10:56:08.449Z,76.37
2019-01-11T10:57:08.457Z,75.95
2019-01-11T10:58:08.417Z,76.06
2019-01-11T10:59:08.469Z,76.06
2019-01-11T11:00:08.393Z,76.37
2019-01-11T11:01:08.524Z,76.57
2019-01-11T11:02:08.390Z,76.57
2019-01-11T11:03:08.391Z,76.43
2019-01-11T11:04:08.344Z,76.75
2019-01-11T11:05:08.409Z,76.57
2019-01-11T11:06:08.347Z,76.47
2019-01-11T11:07:08.423Z,76.99
2019-01-11T11:08:08.307Z,76.99
2019-01-11T11:09:08.335Z,76.89
2019-01-11T11:10:08.275Z,77.20
2019-01-11T11:11:08.387Z,77.51
2019-01-11T11:12:08.260Z,77.40
2019-01-11T11:13:08.365Z,77.40
2019-01-11T11:14:08.237Z,77.40
2019-01-11T11:15:08.279Z,77.20
2019-01-11T11:16:08.232Z,77.47
2019-01-11T11:17:08.295Z,77.47
2019-01-11T11:18:08.193Z,77.58
2019-01-11T11:19:08.201Z,77.47
2019-01-11T11:20:08.167Z,77.47
2019-01-11T11:21:08.351Z,77.68
2019-01-11T11:22:08.143Z,77.68
2019-01-11T11:23:08.231Z,77.68
2019-01-11T11:24:08.125Z,77.78
2019-01-11T11:25:08.267Z,77.99
2019-01-11T11:26:08.108Z,78.30
2019-01-11T11:27:08.189Z,78.23
2019-01-11T11:28:08.081Z,78.20
2019-01-11T11:29:10.246Z,78.44
2019-01-11T11:30:08.069Z,78.34
2019-01-11T11:31:08.084Z,78.34
2019-01-11T11:32:08.057Z,78.65
2019-01-11T11:33:08.473Z,78.65
2019-01-11T11:34:08.012Z,78.75
2019-01-11T11:35:08.107Z,78.65
2019-01-11T11:36:07.989Z,78.72
2019-01-11T11:37:08.553Z,78.86
2019-01-11T11:38:07.969Z,78.75
2019-01-11T11:39:08.037Z,78.82
2019-01-11T11:40:07.950Z,78.92
2019-01-11T11:41:08.289Z,78.82
2019-01-11T11:42:07.938Z,78.72
2019-01-11T11:43:08.984Z,78.92
2019-01-11T11:44:07.896Z,78.68
2019-01-11T11:45:07.975Z,78.68
2019-01-11T11:46:07.879Z,78.78
2019-01-11T11:47:07.932Z,78.89
2019-01-11T11:48:07.855Z,78.78
2019-01-11T11:49:07.904Z,78.78
2019-01-11T11:50:07.861Z,78.78
2019-01-11T11:51:07.920Z,78.99
2019-01-11T11:52:07.831Z,78.99
2019-01-11T11:53:07.827Z,78.99
2019-01-11T11:54:07.783Z,79.30
2019-01-11T11:55:07.776Z,79.20
2019-01-11T11:56:07.762Z,79.30
2019-01-11T11:57:07.854Z,79.65
2019-01-11T11:58:07.814Z,79.65
2019-01-11T11:59:07.774Z,79.61
2019-01-11T12:00:07.720Z,79.44
2019-01-11T12:01:07.781Z,79.83
2019-01-11T12:02:07.693Z,79.93
2019-01-11T12:03:08.710Z,79.72
2019-01-11T12:04:07.674Z,79.83
2019-01-11T12:05:07.709Z,79.83
2019-01-11T12:06:07.655Z,80.14
2019-01-11T12:07:07.821Z,79.93
2019-01-11T12:08:07.642Z,79.83
2019-01-11T12:09:07.738Z,80.00
2019-01-11T12:10:07.600Z,79.90
2019-01-11T12:11:07.649Z,79.61
2019-01-11T12:12:07.584Z,80.45
2019-01-11T12:13:07.599Z,79.79
2019-01-11T12:14:07.563Z,79.83
2019-01-11T12:15:08.599Z,79.48
2019-01-11T12:16:07.535Z,80.52
2019-01-11T12:17:07.592Z,79.79
2019-01-11T12:18:07.538Z,79.90
2019-01-11T12:19:07.608Z,79.69
2019-01-11T12:20:07.495Z,80.31
2019-01-11T12:21:07.512Z,80.52
2019-01-11T12:22:07.472Z,80.21
2019-01-11T12:23:07.564Z,80.10
2019-01-11T12:24:07.446Z,80.31
2019-01-11T12:25:07.544Z,80.21
2019-01-11T12:26:07.428Z,80.58
2019-01-11T12:27:08.479Z,80.16
2019-01-11T12:28:07.405Z,80.58
2019-01-11T12:29:07.512Z,80.16
2019-01-11T12:30:07.382Z,80.58
2019-01-11T12:31:07.484Z,80.58
2019-01-11T12:32:07.359Z,80.79
2019-01-11T12:33:08.422Z,80.37
2019-01-11T12:34:07.365Z,80.27
2019-01-11T12:35:07.414Z,80.27
2019-01-11T12:36:07.311Z,80.47
2019-01-11T12:37:07.319Z,80.37
2019-01-11T12:38:13.534Z,80.27
2019-01-11T12:39:08.315Z,79.96
2019-01-11T12:40:07.272Z,80.16
2019-01-11T12:41:07.349Z,79.96
2019-01-11T12:42:07.242Z,79.96
2019-01-11T12:43:07.262Z,80.58
2019-01-11T12:44:07.236Z,80.47
2019-01-11T12:45:07.279Z,80.47
2019-01-11T12:46:07.203Z,80.79
2019-01-11T12:47:07.290Z,80.58
2019-01-11T12:48:07.177Z,80.89
2019-01-11T12:49:07.237Z,81.30
2019-01-11T12:50:07.157Z,80.47
2019-01-11T12:51:07.218Z,80.85
2019-01-11T12:52:07.134Z,80.85
2019-01-11T12:53:07.232Z,80.58
2019-01-11T12:54:07.109Z,80.44
2019-01-11T12:55:07.183Z,80.47
2019-01-11T12:56:07.087Z,81.27
2019-01-11T12:57:07.160Z,80.85
2019-01-11T12:58:07.071Z,80.85
2019-01-11T12:59:08.214Z,80.85
2019-01-11T13:00:07.064Z,80.75
2019-01-11T13:01:07.081Z,81.37
2019-01-11T13:02:07.022Z,80.75
2019-01-11T13:03:07.100Z,80.75
2019-01-11T13:04:07.010Z,80.33
2019-01-11T13:05:07.038Z,80.75
2019-01-11T13:06:06.980Z,81.27
2019-01-11T13:07:07.024Z,81.16
2019-01-11T13:08:06.952Z,81.58
2019-01-11T13:09:07.040Z,81.58
2019-01-11T13:10:06.952Z,80.92
2019-01-11T13:11:06.951Z,80.92
2019-01-11T13:12:06.912Z,81.54
2019-01-11T13:13:06.965Z,81.44
2019-01-11T13:14:06.887Z,81.79
2019-01-11T13:15:07.016Z,81.75
2019-01-11T13:16:06.865Z,81.85
2019-01-11T13:17:06.886Z,81.85
2019-01-11T13:18:06.846Z,81.37
2019-01-11T13:19:06.905Z,81.37
2019-01-11T13:20:06.829Z,81.44
2019-01-11T13:21:06.860Z,81.44
2019-01-11T13:22:06.799Z,81.54
2019-01-11T13:23:06.829Z,81.44
2019-01-11T13:24:06.790Z,81.44
2019-01-11T13:25:06.848Z,81.44
2019-01-11T13:26:06.768Z,81.44
2019-01-11T13:27:06.860Z,81.34
2019-01-11T13:28:06.731Z,81.54
2019-01-11T13:29:06.771Z,81.34
2019-01-11T13:30:06.708Z,81.54
2019-01-11T13:31:06.816Z,80.92
2019-01-11T13:32:06.688Z,80.99
2019-01-11T13:33:06.697Z,80.88
2019-01-11T13:34:06.666Z,80.88
2019-01-11T13:35:06.712Z,81.09
2019-01-11T13:36:06.657Z,81.30
2019-01-11T13:37:06.647Z,80.47
2019-01-11T13:38:06.641Z,82.03
2019-01-11T13:39:06.645Z,81.96
2019-01-11T13:40:06.600Z,81.92
2019-01-11T13:41:07.711Z,81.82
2019-01-11T13:42:06.603Z,81.71
2019-01-11T13:43:06.667Z,81.75
2019-01-11T13:44:06.555Z,81.82
2019-01-11T13:45:06.593Z,81.71
2019-01-11T13:46:06.573Z,81.71
2019-01-11T13:47:06.591Z,81.82
2019-01-11T13:48:06.508Z,81.92
2019-01-11T13:49:06.607Z,81.92
2019-01-11T13:50:06.494Z,82.03
2019-01-11T13:51:06.520Z,81.71
2019-01-11T13:52:07.397Z,82.23
2019-01-11T13:53:06.537Z,82.13
2019-01-11T13:54:06.438Z,82.54
2019-01-11T13:55:06.448Z,82.65
2019-01-11T13:56:06.414Z,82.54
2019-01-11T13:57:06.495Z,82.44
2019-01-11T13:58:06.391Z,82.65
2019-01-11T13:59:06.477Z,82.54
2019-01-11T14:00:06.372Z,82.23
2019-01-11T14:01:06.390Z,82.23
2019-01-11T14:02:06.462Z,82.34
2019-01-11T14:03:06.400Z,82.13
2019-01-11T14:04:06.325Z,82.23
2019-01-11T14:05:07.329Z,82.54
2019-01-11T14:06:06.306Z,82.54
2019-01-11T14:07:07.385Z,82.37
2019-01-11T14:08:06.312Z,82.86
2019-01-11T14:09:06.336Z,82.86
2019-01-11T14:10:06.260Z,82.95
2019-01-11T14:11:06.355Z,83.16
2019-01-11T14:12:06.256Z,82.95
2019-01-11T14:13:06.268Z,83.16
2019-01-11T14:14:06.213Z,83.16
2019-01-11T14:15:06.276Z,82.95
2019-01-11T14:16:06.186Z,83.06
2019-01-11T14:17:06.222Z,82.75
2019-01-11T14:18:06.763Z,83.06
2019-01-11T14:19:06.205Z,82.95
2019-01-11T14:20:06.148Z,83.06
2019-01-11T14:21:06.222Z,83.26
2019-01-11T14:22:06.158Z,83.26
2019-01-11T14:23:06.164Z,83.23
2019-01-11T14:24:06.102Z,83.44
2019-01-11T14:25:06.142Z,84.06
2019-01-11T14:26:06.082Z,84.30
2019-01-11T14:27:06.196Z,84.20
2019-01-11T14:28:06.079Z,84.20
2019-01-11T14:29:06.066Z,84.09
2019-01-11T14:30:06.045Z,84.16
2019-01-11T14:31:06.032Z,84.30
2019-01-11T14:32:06.015Z,83.99
2019-01-11T14:33:06.152Z,83.85
2019-01-11T14:34:05.997Z,83.95
2019-01-11T14:35:06.012Z,83.95
2019-01-11T14:36:05.970Z,83.85
2019-01-11T14:37:06.023Z,83.95
2019-01-11T14:38:05.970Z,83.75
2019-01-11T14:39:06.039Z,83.75
2019-01-11T14:40:05.938Z,83.95
2019-01-11T14:41:05.950Z,83.75
2019-01-11T14:42:05.918Z,83.85
2019-01-11T14:43:06.008Z,83.64
2019-01-11T14:44:05.878Z,83.75
2019-01-11T14:45:06.903Z,83.95
2019-01-11T14:46:05.858Z,83.95
2019-01-11T14:47:05.895Z,83.95
2019-01-11T14:48:05.865Z,83.75
2019-01-11T14:49:05.906Z,83.95
2019-01-11T14:50:05.821Z,83.85
2019-01-11T14:51:05.921Z,84.06
2019-01-11T14:52:05.794Z,83.75
2019-01-11T14:53:05.866Z,84.06
2019-01-11T14:54:05.766Z,84.27
2019-01-11T14:55:05.844Z,84.09
2019-01-11T14:56:05.747Z,83.85
2019-01-11T14:57:05.780Z,84.06
2019-01-11T14:58:05.744Z,83.85
2019-01-11T14:59:05.856Z,83.85
2019-01-11T15:00:05.702Z,84.47
2019-01-11T15:01:05.820Z,84.58
2019-01-11T15:02:05.678Z,84.27
2019-01-11T15:03:05.735Z,84.37
2019-01-11T15:04:05.664Z,84.47
2019-01-11T15:05:05.714Z,84.27
2019-01-11T15:06:05.635Z,84.37
2019-01-11T15:07:05.727Z,84.47
2019-01-11T15:08:05.608Z,84.58
2019-01-11T15:09:05.670Z,84.27
2019-01-11T15:10:05.598Z,84.27
2019-01-11T15:11:05.649Z,84.58
2019-01-11T15:12:05.569Z,84.99
2019-01-11T15:13:05.605Z,84.68
2019-01-11T15:14:05.557Z,84.68
2019-01-11T15:15:05.579Z,84.53
2019-01-11T15:16:05.519Z,84.53
2019-01-11T15:17:05.595Z,84.99
2019-01-11T15:18:05.520Z,84.43
2019-01-11T15:19:05.538Z,84.53
2019-01-11T15:20:05.478Z,84.53
2019-01-11T15:21:05.518Z,84.88
2019-01-11T15:22:05.996Z,85.40
2019-01-11T15:23:05.590Z,85.40
2019-01-11T15:24:05.431Z,85.36
2019-01-11T15:25:05.546Z,85.36
2019-01-11T15:26:05.414Z,84.84
2019-01-11T15:27:05.456Z,85.36
2019-01-11T15:28:05.411Z,85.40
2019-01-11T15:29:05.510Z,85.40
2019-01-11T15:30:05.370Z,84.99
2019-01-11T15:31:05.382Z,85.47
2019-01-11T15:32:05.348Z,85.05
2019-01-11T15:33:05.398Z,85.09
2019-01-11T15:34:05.346Z,85.26
2019-01-11T15:35:05.412Z,85.16
2019-01-11T15:36:05.301Z,85.16
2019-01-11T15:37:05.308Z,85.26
2019-01-11T15:38:05.275Z,85.36
2019-01-11T15:39:05.373Z,85.26
2019-01-11T15:40:05.253Z,85.16
2019-01-11T15:41:05.351Z,85.47
2019-01-11T15:42:05.243Z,85.57
2019-01-11T15:43:05.269Z,85.36
2019-01-11T15:44:05.242Z,85.88
2019-01-11T15:45:05.325Z,85.68
2019-01-11T15:46:05.244Z,85.57
2019-01-11T15:47:05.293Z,85.78
2019-01-11T15:48:05.167Z,85.36
2019-01-11T15:49:05.297Z,85.57
2019-01-11T15:50:05.154Z,85.57
2019-01-11T15:51:05.332Z,85.68
2019-01-11T15:52:05.155Z,85.68
2019-01-11T15:53:05.133Z,85.78
2019-01-11T15:54:05.101Z,84.95
2019-01-11T15:55:05.200Z,85.78
2019-01-11T15:56:05.084Z,85.36
2019-01-11T15:57:05.241Z,85.78
2019-01-11T15:58:05.070Z,85.78
2019-01-11T15:59:05.105Z,85.99
2019-01-11T16:00:05.064Z,85.94
2019-01-11T16:01:05.171Z,86.15
2019-01-11T16:02:05.014Z,86.25
2019-01-11T16:03:05.142Z,86.05
2019-01-11T16:04:04.997Z,86.05
2019-01-11T16:05:05.150Z,85.84
2019-01-11T16:06:04.967Z,86.05
2019-01-11T16:07:05.082Z,85.84
2019-01-11T16:08:04.943Z,86.15
2019-01-11T16:09:05.046Z,86.15
2019-01-11T16:10:04.979Z,86.25
2019-01-11T16:11:05.009Z,86.29
2019-01-11T16:12:04.904Z,86.05
2019-01-11T16:13:04.986Z,86.15
2019-01-11T16:14:04.892Z,86.15
2019-01-11T16:15:04.948Z,86.15
2019-01-11T16:16:04.873Z,85.84
2019-01-11T16:17:04.917Z,86.50
2019-01-11T16:18:04.844Z,86.36
2019-01-11T16:19:04.827Z,85.84
2019-01-11T16:20:04.814Z,85.84
2019-01-11T16:21:04.887Z,85.84
2019-01-11T16:22:04.785Z,85.84
2019-01-11T16:23:04.821Z,85.94
2019-01-11T16:24:04.763Z,86.46
2019-01-11T16:25:04.788Z,86.15
2019-01-11T16:26:04.768Z,86.15
2019-01-11T16:27:05.787Z,85.94
2019-01-11T16:28:04.720Z,86.46
2019-01-11T16:29:04.727Z,86.67
2019-01-11T16:30:04.696Z,86.57
2019-01-11T16:31:04.714Z,86.67
2019-01-11T16:32:04.688Z,86.67
2019-01-11T16:33:04.769Z,86.67
2019-01-11T16:34:04.655Z,86.67
2019-01-11T16:35:04.739Z,86.77
2019-01-11T16:36:04.661Z,86.63
2019-01-11T16:37:04.700Z,86.73
2019-01-11T16:38:04.611Z,86.73
2019-01-11T16:39:05.697Z,87.08
2019-01-11T16:40:04.589Z,86.88
2019-01-11T16:41:05.585Z,86.88
2019-01-11T16:42:04.594Z,86.83
2019-01-11T16:43:04.609Z,86.73
2019-01-11T16:44:04.545Z,87.08
2019-01-11T16:45:05.597Z,86.73
2019-01-11T16:46:04.521Z,86.67
2019-01-11T16:47:04.577Z,86.83
2019-01-11T16:48:04.515Z,86.77
2019-01-11T16:49:05.535Z,86.94
2019-01-11T16:50:04.476Z,87.15
2019-01-11T16:51:05.610Z,87.15
2019-01-11T16:52:04.472Z,86.94
2019-01-11T16:53:05.570Z,86.94
2019-01-11T16:54:04.431Z,87.25
2019-01-11T16:55:06.463Z,87.04
2019-01-11T16:56:04.410Z,87.04
2019-01-11T16:57:05.447Z,87.04
2019-01-11T16:58:04.407Z,87.25
2019-01-11T16:59:05.485Z,86.83
2019-01-11T17:00:04.368Z,86.94
2019-01-11T17:01:04.425Z,87.04
2019-01-11T17:02:04.345Z,87.15
2019-01-11T17:03:04.533Z,86.94
2019-01-11T17:04:04.323Z,86.63
2019-01-11T17:05:04.358Z,86.90
2019-01-11T17:06:04.298Z,86.63
2019-01-11T17:07:04.339Z,87.46
2019-01-11T17:08:04.317Z,87.00
2019-01-11T17:09:04.293Z,87.46
2019-01-11T17:10:04.256Z,87.21
2019-01-11T17:11:04.429Z,87.25
2019-01-11T17:12:04.233Z,87.41
2019-01-11T17:13:04.264Z,87.25
2019-01-11T17:14:04.211Z,87.10
2019-01-11T17:15:04.303Z,87.31
2019-01-11T17:16:04.187Z,87.31
2019-01-11T17:17:04.277Z,87.21
2019-01-11T17:18:04.187Z,87.21
2019-01-11T17:19:05.299Z,87.31
2019-01-11T17:20:04.153Z,87.21
2019-01-11T17:21:04.209Z,87.21
2019-01-11T17:22:04.119Z,87.21
2019-01-11T17:23:04.140Z,87.21
2019-01-11T17:24:04.111Z,87.31
2019-01-11T17:25:04.101Z,87.21
2019-01-11T17:26:04.079Z,87.10
2019-01-11T17:27:04.096Z,87.41
2019-01-11T17:28:04.055Z,87.31
2019-01-11T17:29:04.108Z,87.31
2019-01-11T17:30:04.037Z,87.31
2019-01-11T17:31:04.044Z,87.31
2019-01-11T17:32:04.020Z,87.10
2019-01-11T17:33:04.117Z,87.21
2019-01-11T17:34:04.001Z,87.21
2019-01-11T17:35:04.000Z,87.31
2019-01-11T17:36:03.959Z,87.41
2019-01-11T17:37:03.968Z,87.21
2019-01-11T17:38:03.948Z,87.21
2019-01-11T17:39:03.963Z,87.31
2019-01-11T17:40:03.919Z,87.31
2019-01-11T17:41:03.926Z,87.41
2019-01-11T17:42:03.892Z,87.62
2019-01-11T17:43:03.896Z,87.31
2019-01-11T17:44:03.887Z,87.10
2019-01-11T17:45:03.873Z,87.31
2019-01-11T17:46:03.862Z,87.52
2019-01-11T17:47:03.849Z,87.41
2019-01-11T17:48:03.835Z,87.41
2019-01-11T17:49:03.861Z,87.41
2019-01-11T17:50:03.817Z,87.17
2019-01-11T17:51:03.819Z,87.41
2019-01-11T17:52:03.786Z,87.41
2019-01-11T17:53:03.787Z,87.31
2019-01-11T17:54:03.801Z,87.62
2019-01-11T17:55:03.761Z,87.62
2019-01-11T17:56:03.746Z,87.62
2019-01-11T17:57:03.755Z,87.62
2019-01-11T17:58:03.728Z,87.41
2019-01-11T17:59:03.731Z,87.31
2019-01-11T18:00:03.732Z,87.58
2019-01-11T18:01:03.700Z,87.52
2019-01-11T18:02:03.756Z,87.31
2019-01-11T18:03:03.670Z,87.58
2019-01-11T18:04:03.661Z,87.62
2019-01-11T18:05:03.681Z,87.62
2019-01-11T18:06:03.788Z,87.41
2019-01-11T18:07:03.634Z,87.37
2019-01-11T18:08:03.614Z,87.62
2019-01-11T18:09:03.607Z,87.58
2019-01-11T18:10:03.619Z,87.37
2019-01-11T18:11:03.580Z,87.41
2019-01-11T18:12:03.561Z,87.68
2019-01-11T18:13:03.566Z,87.48
2019-01-11T18:14:03.541Z,87.52
2019-01-11T18:15:03.563Z,87.62
2019-01-11T18:16:03.519Z,87.62
2019-01-11T18:17:03.517Z,87.58
2019-01-11T18:18:03.501Z,87.58
2019-01-11T18:19:03.495Z,87.58
2019-01-11T18:20:03.543Z,87.58
2019-01-11T18:21:03.483Z,87.37
2019-01-11T18:22:03.462Z,87.48
2019-01-11T18:23:06.964Z,87.58
2019-01-11T18:24:03.437Z,87.58
2019-01-11T18:25:03.431Z,87.62
2019-01-11T18:26:03.425Z,87.58
2019-01-11T18:27:03.409Z,87.27
2019-01-11T18:28:03.394Z,87.48
2019-01-11T18:29:03.389Z,87.52
2019-01-11T18:30:03.366Z,87.58
2019-01-11T18:31:03.391Z,87.58
2019-01-11T18:32:03.345Z,87.58
2019-01-11T18:33:03.336Z,87.62
2019-01-11T18:34:03.332Z,87.48
2019-01-11T18:35:03.315Z,87.58
2019-01-11T18:36:03.319Z,87.37
2019-01-11T18:37:03.298Z,87.48
2019-01-11T18:38:03.271Z,87.58
2019-01-11T18:39:03.279Z,87.58
2019-01-11T18:40:03.251Z,87.58
2019-01-11T18:41:03.275Z,87.62
2019-01-11T18:42:03.235Z,87.48
2019-01-11T18:43:03.234Z,87.58
2019-01-11T18:44:03.206Z,87.48
2019-01-11T18:45:03.216Z,87.58
2019-01-11T18:46:03.208Z,87.58
2019-01-11T18:47:03.188Z,87.48
2019-01-11T18:48:03.180Z,87.58
2019-01-11T18:49:04.330Z,87.27
2019-01-11T18:50:03.953Z,87.48
2019-01-11T18:51:03.165Z,87.17
2019-01-11T18:52:03.119Z,87.48
2019-01-11T18:53:03.119Z,87.37
2019-01-11T18:54:03.102Z,87.17
2019-01-11T18:55:03.100Z,87.37
2019-01-11T18:56:05.564Z,87.37
2019-01-11T18:57:03.072Z,87.27
2019-01-11T18:58:03.055Z,87.37
2019-01-11T18:59:03.041Z,87.17
2019-01-11T19:00:03.031Z,87.27
2019-01-11T19:01:03.030Z,87.07
2019-01-11T19:02:03.034Z,87.17
2019-01-11T19:03:03.010Z,87.17
2019-01-11T19:04:02.987Z,87.27
2019-01-11T19:05:02.984Z,87.48
2019-01-11T19:06:02.962Z,87.37
2019-01-11T19:07:02.998Z,87.27
2019-01-11T19:08:02.935Z,87.27
2019-01-11T19:09:02.939Z,86.96
2019-01-11T19:10:02.921Z,87.17
2019-01-11T19:11:02.920Z,87.17
2019-01-11T19:12:02.917Z,87.07
2019-01-11T19:13:02.920Z,87.17
2019-01-11T19:14:02.877Z,87.07
2019-01-11T19:15:02.880Z,87.17
2019-01-11T19:16:02.851Z,87.17
2019-01-11T19:17:03.879Z,86.96
2019-01-11T19:18:02.832Z,87.27
2019-01-11T19:19:02.824Z,86.86
2019-01-11T19:20:02.810Z,87.48
2019-01-11T19:21:02.820Z,87.48
2019-01-11T19:22:02.782Z,86.96
2019-01-11T19:23:02.816Z,86.76
2019-01-11T19:24:02.766Z,86.96
2019-01-11T19:25:02.776Z,86.96
2019-01-11T19:26:02.758Z,86.76
2019-01-11T19:27:02.767Z,86.65
2019-01-11T19:28:02.739Z,86.86
2019-01-11T19:29:02.722Z,86.76
2019-01-11T19:30:02.703Z,86.96
2019-01-11T19:31:02.704Z,86.44
2019-01-11T19:32:02.676Z,87.07
2019-01-11T19:33:03.713Z,86.76
2019-01-11T19:34:02.658Z,86.96
2019-01-11T19:35:02.644Z,86.76
2019-01-11T19:36:02.685Z,86.96
2019-01-11T19:37:02.634Z,87.17
2019-01-11T19:38:02.629Z,86.96
2019-01-11T19:39:04.020Z,87.07
2019-01-11T19:40:02.580Z,86.96
2019-01-11T19:41:02.591Z,87.07
2019-01-11T19:42:02.568Z,86.86
2019-01-11T19:43:02.606Z,87.07
2019-01-11T19:44:02.540Z,86.96
2019-01-11T19:45:02.537Z,86.96
2019-01-11T19:46:02.521Z,87.17
2019-01-11T19:47:02.524Z,86.71
2019-01-11T19:48:02.533Z,86.55
2019-01-11T19:49:02.500Z,86.55
2019-01-11T19:50:02.468Z,87.07
2019-01-11T19:51:02.492Z,86.65
2019-01-11T19:52:02.470Z,87.07
2019-01-11T19:53:02.459Z,87.07
2019-01-11T19:54:02.465Z,86.96
2019-01-11T19:55:02.453Z,87.07
2019-01-11T19:56:02.413Z,86.55
2019-01-11T19:57:02.402Z,86.96
2019-01-11T19:58:02.417Z,86.96
2019-01-11T19:59:02.412Z,87.07
2019-01-11T20:00:02.375Z,86.61
2019-01-11T20:01:02.466Z,86.76
2019-01-11T20:02:02.340Z,86.82
2019-01-11T20:03:02.344Z,86.65
2019-01-11T20:04:02.345Z,86.65
2019-01-11T20:05:02.339Z,86.76
2019-01-11T20:06:02.311Z,86.65
2019-01-11T20:07:02.297Z,86.96
2019-01-11T20:08:02.284Z,86.96
2019-01-11T20:09:02.293Z,86.96
2019-01-11T20:10:02.258Z,87.07
2019-01-11T20:11:02.246Z,87.07
2019-01-11T20:12:02.258Z,86.96
2019-01-11T20:13:02.247Z,87.07
2019-01-11T20:14:02.234Z,87.07
2019-01-11T20:15:02.218Z,86.86
2019-01-11T20:16:02.191Z,87.07
2019-01-11T20:17:02.184Z,86.96
2019-01-11T20:18:02.188Z,86.44
2019-01-11T20:19:02.179Z,86.96
2019-01-11T20:20:02.146Z,87.07
2019-01-11T20:21:02.143Z,86.96
2019-01-11T20:22:02.126Z,87.07
2019-01-11T20:23:02.868Z,86.96
2019-01-11T20:24:02.129Z,87.07
2019-01-11T20:25:02.096Z,86.96
2019-01-11T20:26:02.074Z,86.96
2019-01-11T20:27:02.077Z,86.86
2019-01-11T20:28:02.053Z,87.07
2019-01-11T20:29:02.077Z,87.17
2019-01-11T20:30:02.025Z,86.90
2019-01-11T20:31:02.022Z,86.96
2019-01-11T20:32:02.009Z,87.17
2019-01-11T20:33:02.000Z,87.07
2019-01-11T20:34:02.008Z,87.07
2019-01-11T20:35:01.982Z,87.07
2019-01-11T20:36:01.961Z,87.17
2019-01-11T20:37:01.960Z,86.96
2019-01-11T20:38:01.945Z,86.96
2019-01-11T20:39:01.941Z,86.86
2019-01-11T20:40:01.937Z,86.55
2019-01-11T20:41:01.964Z,86.65
2019-01-11T20:42:01.915Z,86.65
2019-01-11T20:43:01.973Z,86.76
2019-01-11T20:44:01.883Z,87.07
2019-01-11T20:45:01.942Z,86.86
2019-01-11T20:46:03.251Z,86.65
2019-01-11T20:47:01.897Z,86.65
2019-01-11T20:48:01.830Z,86.76
2019-01-11T20:49:01.921Z,86.76
2019-01-11T20:50:01.826Z,86.96
2019-01-11T20:51:01.823Z,86.76
2019-01-11T20:52:01.783Z,86.86
2019-01-11T20:53:01.838Z,86.76
2019-01-11T20:54:01.771Z,86.76
2019-01-11T20:55:01.899Z,86.76
2019-01-11T20:56:01.749Z,86.65
2019-01-11T20:57:01.763Z,86.65
2019-01-11T20:58:01.721Z,86.41
2019-01-11T20:59:01.778Z,86.55
2019-01-11T21:00:01.719Z,86.55
2019-01-11T21:01:01.801Z,86.55
2019-01-11T21:02:01.676Z,86.44
2019-01-11T21:03:01.702Z,86.55
2019-01-11T21:04:01.656Z,86.51
2019-01-11T21:05:02.674Z,86.51
2019-01-11T21:06:01.622Z,86.24
2019-01-11T21:07:01.734Z,85.83
2019-01-11T21:08:01.607Z,85.83
2019-01-11T21:09:01.647Z,86.13
2019-01-11T21:10:01.600Z,85.83
2019-01-11T21:11:01.658Z,86.03
2019-01-11T21:12:01.562Z,86.24
2019-01-11T21:13:02.033Z,86.13
2019-01-11T21:14:01.545Z,86.03
2019-01-11T21:15:01.620Z,86.34
2019-01-11T21:16:01.521Z,85.83
2019-01-11T21:17:01.686Z,85.72
2019-01-11T21:18:01.496Z,85.83
2019-01-11T21:19:01.516Z,85.72
2019-01-11T21:20:01.496Z,85.72
2019-01-11T21:21:01.527Z,85.72
2019-01-11T21:22:01.445Z,86.13
2019-01-11T21:23:02.458Z,85.72
2019-01-11T21:24:01.432Z,85.72
2019-01-11T21:25:01.488Z,86.24
2019-01-11T21:26:01.408Z,86.13
2019-01-11T21:27:01.468Z,86.34
2019-01-11T21:28:01.386Z,86.34
2019-01-11T21:29:01.385Z,86.03
2019-01-11T21:30:01.394Z,86.03
2019-01-11T21:31:01.384Z,85.83
2019-01-11T21:32:01.339Z,85.72
2019-01-11T21:33:01.406Z,86.34
2019-01-11T21:34:01.334Z,86.03
2019-01-11T21:35:01.347Z,86.03
2019-01-11T21:36:01.296Z,86.03
2019-01-11T21:37:02.353Z,85.93
2019-01-11T21:38:01.283Z,85.93
2019-01-11T21:39:01.345Z,86.24
2019-01-11T21:40:01.274Z,85.93
2019-01-11T21:41:01.254Z,86.03
2019-01-11T21:42:01.224Z,86.03
2019-01-11T21:43:01.270Z,86.13
2019-01-11T21:44:01.216Z,86.13
2019-01-11T21:45:01.303Z,85.72
2019-01-11T21:46:03.556Z,85.83
2019-01-11T21:47:01.304Z,85.72
2019-01-11T21:48:01.168Z,85.93
2019-01-11T21:49:01.213Z,85.93
2019-01-11T21:50:01.135Z,85.83
2019-01-11T21:51:01.260Z,85.93
2019-01-11T21:52:01.119Z,85.72
2019-01-11T21:53:01.133Z,85.52
2019-01-11T21:54:01.092Z,85.72
2019-01-11T21:55:01.155Z,85.72
2019-01-11T21:56:01.112Z,85.72
2019-01-11T21:57:01.164Z,85.72
2019-01-11T21:58:01.054Z,85.37
2019-01-11T21:59:01.078Z,85.31
2019-01-11T22:00:01.027Z,85.10
2019-01-11T22:01:01.123Z,85.41
2019-01-11T22:02:01.006Z,84.79
2019-01-11T22:03:01.121Z,84.89
2019-01-11T22:04:00.984Z,84.89
2019-01-11T22:05:01.026Z,85.52
2019-01-11T22:06:00.984Z,84.79
2019-01-11T22:07:01.085Z,84.79
2019-01-11T22:08:00.948Z,85.21
2019-01-11T22:09:01.157Z,85.72
2019-01-11T22:10:00.924Z,85.31
2019-01-11T22:11:01.059Z,85.62
2019-01-11T22:12:00.898Z,85.52
2019-01-11T22:13:00.991Z,85.41
2019-01-11T22:14:00.871Z,85.62
2019-01-11T22:15:00.954Z,85.31
2019-01-11T22:16:00.872Z,85.31
2019-01-11T22:17:00.928Z,85.31
2019-01-11T22:18:00.825Z,85.52
2019-01-11T22:19:00.996Z,85.83
2019-01-11T22:20:00.821Z,85.31
2019-01-11T22:21:00.917Z,85.52
2019-01-11T22:22:00.792Z,85.21
2019-01-11T22:23:00.930Z,85.62
2019-01-11T22:24:03.198Z,85.62
2019-01-11T22:25:00.897Z,85.52
2019-01-11T22:26:00.798Z,85.10
2019-01-11T22:27:00.871Z,85.10
2019-01-11T22:28:00.716Z,84.89
2019-01-11T22:29:03.908Z,85.21
2019-01-11T22:30:00.700Z,85.21
2019-01-11T22:31:00.904Z,85.04